VAM Template | Vabird

Vabird! Vabird Marcello Mazzieri




 INFORMACIÓN METAR y TAF
METAR FOR GCLP
ADDS - METARS form results

(0459 UTC 21 October 2020)
Data provider http://aviationweather.gov/metar/data/
 
METAR text: GCLP 210430Z 36004KT 9999 SCT030 23/17 Q1014 NOSIG
Conditions at: GCLP (LAS PALMAS/GANDO, ES) observed 0430 UTC 21 October 2020
Temperature: 23.0°C (73°F)
Dewpoint: 17.0°C (63°F) [RH = 69%]
Pressure (altimeter): 29.94 inches Hg (1014.0 mb)
Winds: from the N (360 degrees) at 5 MPH (4 knots; 2.1 m/s)
Visibility: 6 or more miles (10+ km)
Ceiling: at least 12,000 feet AGL
Clouds: scattered clouds at 3000 feet AGL
Weather: no significant weather observed at this time

METAR text: GCLP 210400Z 36005KT 9999 BKN030 22/17 Q1014 NOSIG
Conditions at: GCLP (LAS PALMAS/GANDO, ES) observed 0400 UTC 21 October 2020
Temperature: 22.0°C (72°F)
Dewpoint: 17.0°C (63°F) [RH = 73%]
Pressure (altimeter): 29.94 inches Hg (1014.0 mb)
Winds: from the N (360 degrees) at 6 MPH (5 knots; 2.6 m/s)
Visibility: 6 or more miles (10+ km)
Ceiling: 3000 feet AGL
Clouds: broken clouds at 3000 feet AGL
Weather: no significant weather observed at this time

Forecast for: GCLP (LAS PALMAS/GANDO, ES)
Text: TAF GCLP 210200Z 2103/2203 02008KT 9999 BKN030 TX25/2114Z TN20/2106Z
Forecast period: 0300 UTC 21 October 2020 to 0300 UTC 22 October 2020
Forecast type: FROM: standard forecast or significant change
Winds: from the NNE (20 degrees) at 9 MPH (8 knots; 4.1 m/s)
Visibility: 6 or more miles (10+ km)
Ceiling: 3000 feet AGL
Clouds: broken clouds at 3000 feet AGL
Weather: no significant weather forecast for this period
Text: PROB30
Forecast period: 1200 to 2000 UTC 21 October 2020
Forecast type: TEMPORARY: The following changes expected for less than half the time period
Visibility: 2.80 miles (4.51 km)
Ceiling: unknown
Clouds: missing
Weather: RA  (moderate rain)

 MAPA DE AEROPUERTO

 INFORMACIÓN DE PISTA